Time;durP1;ratioP1;P1;durP2;ratioP2;P2;SDS_P1;SDS_P2;PMS_P1;PMS_P2;Temp;Humidity;BMP_temperature;BMP_pressure;BME280_temperature;BME280_humidity;BME280_pressure;Samples;Min_cycle;Max_cycle;Signal;HPM_P1;HPM_P2
2022/07/16 00:03:42;;;;;;;6.55;2.40;;;25.80;56.30;;;;;;4898553;29;20444;-84
2022/07/16 00:06:07;;;;;;;4.50;2.20;;;25.70;55.50;;;;;;4899058;29;20033;-82
2022/07/16 00:08:33;;;;;;;4.53;2.50;;;25.70;55.80;;;;;;4898815;29;20021;-84
2022/07/16 00:10:59;;;;;;;5.15;2.30;;;25.70;56.00;;;;;;4897123;29;20032;-84
2022/07/16 00:13:25;;;;;;;5.05;2.20;;;25.70;55.70;;;;;;4898745;29;20056;-83
2022/07/16 00:15:50;;;;;;;5.57;2.40;;;25.60;55.30;;;;;;4898808;29;20033;-82
2022/07/16 00:21:00;;;;;;;3.50;2.25;;;25.60;55.70;;;;;;4898588;29;20082;-84
2022/07/16 00:23:26;;;;;;;2.88;1.83;;;25.60;55.90;;;;;;4898354;29;20048;-84
2022/07/16 00:25:51;;;;;;;3.50;1.83;;;25.60;55.20;;;;;;4898292;29;20466;-84
2022/07/16 00:28:17;;;;;;;4.30;1.92;;;25.60;55.60;;;;;;4898567;29;20059;-83
2022/07/16 00:30:43;;;;;;;4.47;2.30;;;25.50;55.50;;;;;;4898122;29;20497;-84
2022/07/16 00:33:08;;;;;;;5.55;2.10;;;25.60;55.70;;;;;;4898192;29;20029;-83
2022/07/16 00:35:34;;;;;;;3.75;2.28;;;25.50;56.00;;;;;;4898336;29;20088;-84
2022/07/16 00:38:00;;;;;;;4.65;2.40;;;25.50;56.00;;;;;;4898452;29;20025;-84
2022/07/16 00:40:25;;;;;;;3.72;2.20;;;25.50;55.80;;;;;;4897328;29;20484;-84
2022/07/16 00:42:51;;;;;;;6.13;2.20;;;25.50;55.80;;;;;;4897788;29;20381;-83
2022/07/16 00:45:17;;;;;;;3.45;2.10;;;25.40;56.60;;;;;;4896728;29;20040;-84
2022/07/16 00:47:42;;;;;;;8.45;2.45;;;25.40;56.60;;;;;;4898064;29;20025;-83
2022/07/16 00:50:08;;;;;;;3.80;2.30;;;25.40;56.90;;;;;;4898111;29;20485;-84
2022/07/16 00:52:36;;;;;;;9.20;2.10;;;25.30;57.80;;;;;;4897954;29;20029;-84
2022/07/16 00:55:03;;;;;;;5.35;2.83;;;25.30;57.30;;;;;;4897892;29;20028;-84
2022/07/16 00:57:29;;;;;;;8.23;2.45;;;25.20;58.10;;;;;;4896325;29;20397;-82
2022/07/16 00:59:55;;;;;;;4.75;2.47;;;25.20;58.30;;;;;;4898098;29;20037;-84
2022/07/16 01:02:21;;;;;;;5.10;2.63;;;25.20;58.50;;;;;;4897696;29;20059;-84
2022/07/16 01:04:47;;;;;;;5.28;2.70;;;25.10;59.10;;;;;;4897881;29;20032;-84
2022/07/16 01:07:13;;;;;;;4.68;3.40;;;25.00;59.50;;;;;;4897849;29;20028;-84
2022/07/16 01:09:39;;;;;;;5.03;3.03;;;24.90;59.00;;;;;;4897539;29;20025;-82
2022/07/16 01:12:05;;;;;;;6.38;3.40;;;25.00;58.80;;;;;;4897819;29;20470;-84
2022/07/16 01:14:31;;;;;;;6.50;3.28;;;24.90;58.80;;;;;;4897756;29;20033;-85
2022/07/16 01:16:57;;;;;;;10.10;3.88;;;24.90;59.30;;;;;;4897775;29;20437;-84
2022/07/16 01:19:22;;;;;;;5.10;3.55;;;24.80;58.90;;;;;;4897633;29;20036;-84
2022/07/16 01:21:48;;;;;;;6.85;3.63;;;24.80;59.30;;;;;;4896300;29;20446;-84
2022/07/16 01:24:14;;;;;;;5.88;4.07;;;24.80;59.70;;;;;;4897422;29;20052;-84
2022/07/16 01:26:40;;;;;;;10.15;3.88;;;24.70;59.50;;;;;;4897412;29;20029;-84
2022/07/16 01:29:05;;;;;;;6.72;3.75;;;24.70;59.80;;;;;;4897776;29;20032;-82
2022/07/16 01:31:31;;;;;;;4.72;3.70;;;24.70;60.10;;;;;;4897207;29;20087;-83
2022/07/16 01:36:41;;;;;;;6.22;4.45;;;24.60;60.60;;;;;;4897366;29;20071;-84
2022/07/16 01:39:06;;;;;;;6.13;4.50;;;24.40;61.30;;;;;;4897372;29;20033;-84
2022/07/16 01:41:32;;;;;;;9.18;5.00;;;24.50;61.50;;;;;;4897458;29;20095;-84
2022/07/16 01:43:58;;;;;;;8.55;4.63;;;24.50;61.50;;;;;;4897431;29;20037;-84
2022/07/16 01:46:24;;;;;;;7.07;4.60;;;24.50;61.30;;;;;;4897515;29;20028;-84
2022/07/16 01:48:49;;;;;;;8.82;4.93;;;24.50;61.60;;;;;;4897340;29;20031;-84
2022/07/16 01:51:15;;;;;;;8.38;5.13;;;24.50;61.50;;;;;;4897127;29;20032;-84
2022/07/16 01:53:41;;;;;;;9.35;5.75;;;24.50;61.30;;;;;;4896623;29;20041;-84
2022/07/16 01:56:07;;;;;;;7.90;5.13;;;24.50;61.40;;;;;;4897116;29;20020;-84
2022/07/16 01:58:33;;;;;;;10.23;5.40;;;24.50;61.40;;;;;;4897367;29;20025;-84
2022/07/16 02:00:58;;;;;;;8.52;5.00;;;24.40;61.60;;;;;;4897002;29;20028;-84
2022/07/16 02:03:24;;;;;;;10.55;5.22;;;24.40;61.80;;;;;;4897296;29;20088;-84
2022/07/16 02:05:50;;;;;;;8.82;5.50;;;24.30;62.20;;;;;;4896067;29;20028;-84
2022/07/16 02:08:15;;;;;;;6.88;4.75;;;24.30;62.00;;;;;;4897684;29;20093;-84
2022/07/16 02:10:41;;;;;;;11.93;5.10;;;24.20;62.60;;;;;;4900803;29;20442;-84
2022/07/16 02:13:07;;;;;;;8.55;6.03;;;24.20;62.90;;;;;;4901029;29;20036;-84
2022/07/16 02:15:34;;;;;;;10.63;5.85;;;24.20;63.00;;;;;;4900711;29;20012;-84
2022/07/16 02:18:00;;;;;;;9.05;6.65;;;24.20;63.10;;;;;;4899380;29;20059;-84
2022/07/16 02:20:26;;;;;;;9.00;6.13;;;24.10;63.40;;;;;;4900625;29;20493;-84
2022/07/16 02:22:55;;;;;;;13.77;6.57;;;24.20;63.50;;;;;;4900340;29;20060;-84
2022/07/16 02:25:21;;;;;;;14.05;8.77;;;24.20;63.30;;;;;;4900674;29;20028;-84
2022/07/16 02:30:31;;;;;;;15.13;8.80;;;24.20;63.80;;;;;;4900457;29;20132;-84
2022/07/16 02:32:57;;;;;;;10.63;7.93;;;24.20;63.90;;;;;;4899213;29;20580;-84
2022/07/16 02:35:22;;;;;;;11.00;8.13;;;24.20;63.80;;;;;;4898972;29;20405;-84
2022/07/16 02:37:48;;;;;;;11.75;8.75;;;24.10;64.50;;;;;;4900354;29;20396;-84
2022/07/16 02:40:14;;;;;;;13.18;8.68;;;24.20;64.20;;;;;;4900262;29;20389;-84
2022/07/16 02:42:40;;;;;;;17.67;9.30;;;24.10;64.50;;;;;;4900214;29;20028;-84
2022/07/16 02:45:07;;;;;;;15.30;8.70;;;24.20;64.20;;;;;;4900353;29;20040;-84
2022/07/16 02:47:34;;;;;;;11.55;8.95;;;24.10;64.80;;;;;;4900257;29;20028;-84
2022/07/16 02:49:59;;;;;;;12.27;8.88;;;24.10;64.70;;;;;;4898831;29;20025;-84
2022/07/16 02:52:25;;;;;;;15.10;9.63;;;24.00;65.40;;;;;;4898683;29;20127;-84
2022/07/16 02:54:51;;;;;;;11.38;8.80;;;24.10;65.10;;;;;;4899623;29;20033;-84
2022/07/16 02:57:16;;;;;;;13.48;9.48;;;24.00;65.30;;;;;;4898908;29;20409;-84
2022/07/16 02:59:42;;;;;;;13.20;9.52;;;23.90;65.80;;;;;;4900082;29;20021;-84
2022/07/16 03:02:08;;;;;;;14.75;9.40;;;24.00;65.40;;;;;;4900089;29;20033;-84
2022/07/16 03:04:33;;;;;;;14.88;10.23;;;24.00;65.80;;;;;;4899499;29;20028;-82
2022/07/16 03:06:59;;;;;;;14.80;10.43;;;24.00;66.00;;;;;;4898529;29;20029;-83
2022/07/16 03:09:25;;;;;;;13.40;9.73;;;23.90;66.10;;;;;;4899897;29;20021;-84
2022/07/16 03:11:51;;;;;;;17.67;10.55;;;23.90;66.90;;;;;;4898528;29;20127;-84
2022/07/16 03:14:16;;;;;;;16.00;10.85;;;23.90;67.00;;;;;;4899566;29;20065;-84
2022/07/16 03:16:42;;;;;;;18.90;11.60;;;23.90;67.60;;;;;;4899760;29;20116;-84
2022/07/16 03:19:07;;;;;;;14.27;11.63;;;23.70;67.70;;;;;;4899297;29;20036;-84
2022/07/16 03:21:33;;;;;;;18.23;11.23;;;23.80;68.00;;;;;;4899678;29;20043;-83
2022/07/16 03:23:59;;;;;;;19.42;12.15;;;23.70;68.30;;;;;;4899305;29;20033;-84
2022/07/16 03:26:24;;;;;;;15.45;12.15;;;23.70;69.20;;;;;;4899640;29;20421;-84
2022/07/16 03:28:50;;;;;;;16.33;10.85;;;23.60;69.70;;;;;;4899495;29;20100;-84
2022/07/16 03:31:17;;;;;;;17.77;12.38;;;23.70;69.80;;;;;;4898995;29;20531;-83
2022/07/16 03:33:43;;;;;;;16.55;12.30;;;23.60;70.10;;;;;;4899181;29;20036;-83
2022/07/16 03:36:10;;;;;;;18.50;11.63;;;23.50;70.10;;;;;;4899329;29;20037;-84
2022/07/16 03:41:20;;;;;;;16.65;11.35;;;23.40;70.70;;;;;;4899543;29;20044;-84
2022/07/16 03:43:45;;;;;;;15.48;10.70;;;23.30;71.10;;;;;;4899361;29;20024;-84
2022/07/16 03:46:13;;;;;;;18.55;11.07;;;23.40;71.60;;;;;;4899219;29;20036;-84
2022/07/16 03:48:39;;;;;;;16.40;12.10;;;23.30;71.80;;;;;;4898456;29;20553;-84
2022/07/16 03:51:06;;;;;;;19.63;12.25;;;23.30;72.40;;;;;;4898951;29;20031;-84
2022/07/16 03:53:33;;;;;;;15.30;11.30;;;23.30;72.70;;;;;;4899167;29;20028;-84
2022/07/16 03:55:59;;;;;;;18.02;11.98;;;23.10;73.00;;;;;;4898884;29;20032;-84
2022/07/16 03:58:26;;;;;;;13.93;10.65;;;23.10;73.40;;;;;;4898760;29;20084;-85
2022/07/16 04:00:52;;;;;;;17.42;11.45;;;23.10;73.90;;;;;;4898848;29;20029;-84
2022/07/16 04:03:17;;;;;;;16.65;11.18;;;23.10;74.10;;;;;;4898634;29;20401;-84
2022/07/16 04:05:43;;;;;;;19.05;12.25;;;23.10;74.50;;;;;;4898996;29;20024;-84
2022/07/16 04:08:09;;;;;;;19.05;12.10;;;23.00;75.60;;;;;;4897444;29;20031;-84
2022/07/16 04:10:35;;;;;;;18.67;12.68;;;22.90;76.10;;;;;;4898875;29;20473;-84
2022/07/16 04:13:00;;;;;;;17.83;12.15;;;22.90;76.20;;;;;;4898665;29;20033;-84
2022/07/16 04:15:26;;;;;;;15.85;12.88;;;22.90;77.00;;;;;;4898606;29;20039;-84
2022/07/16 04:17:52;;;;;;;21.85;13.45;;;22.80;77.40;;;;;;4898359;29;20031;-82
2022/07/16 04:20:18;;;;;;;20.85;14.70;;;22.80;77.50;;;;;;4898611;29;20036;-84
2022/07/16 04:22:44;;;;;;;20.17;12.82;;;22.70;78.10;;;;;;4898441;29;20515;-84
2022/07/16 04:25:09;;;;;;;17.80;13.20;;;22.70;78.20;;;;;;4898409;29;20031;-83
2022/07/16 04:27:35;;;;;;;21.45;14.13;;;22.70;78.60;;;;;;4898771;29;20085;-83
2022/07/16 04:30:01;;;;;;;23.20;13.73;;;22.70;79.50;;;;;;4898185;29;20128;-83
2022/07/16 04:32:26;;;;;;;21.73;15.07;;;22.80;79.60;;;;;;4897560;29;20503;-83
2022/07/16 04:34:52;;;;;;;20.50;15.27;;;22.90;79.50;;;;;;4898373;29;20499;-84
2022/07/16 04:37:17;;;;;;;22.88;15.68;;;22.90;80.10;;;;;;4898374;29;20489;-84
2022/07/16 04:39:43;;;;;;;19.63;15.15;;;22.90;80.40;;;;;;4898248;29;20036;-84
2022/07/16 04:42:09;;;;;;;19.70;15.07;;;22.70;81.40;;;;;;4898215;29;20025;-84
2022/07/16 04:44:34;;;;;;;19.10;14.55;;;22.60;81.90;;;;;;4898042;29;20028;-84
2022/07/16 04:47:00;;;;;;;20.05;14.80;;;22.50;82.30;;;;;;4896521;29;20048;-83
2022/07/16 04:49:25;;;;;;;21.05;14.57;;;22.60;82.50;;;;;;4898070;29;20370;-84
2022/07/16 04:51:51;;;;;;;23.80;15.20;;;22.60;82.70;;;;;;4897931;29;20496;-84
2022/07/16 04:54:17;;;;;;;25.95;16.50;;;22.50;83.10;;;;;;4897927;29;20028;-84
2022/07/16 04:56:42;;;;;;;25.23;15.90;;;22.40;83.80;;;;;;4898212;29;20035;-84
2022/07/16 04:59:08;;;;;;;23.38;15.75;;;22.40;84.30;;;;;;4897892;29;20477;-84
2022/07/16 05:01:34;;;;;;;20.85;15.95;;;22.40;84.40;;;;;;4897911;29;20497;-84
2022/07/16 05:03:59;;;;;;;21.88;16.63;;;22.50;84.30;;;;;;4896269;29;20043;-84
2022/07/16 05:06:25;;;;;;;24.63;16.42;;;22.50;84.20;;;;;;4897700;29;20165;-84
2022/07/16 05:08:51;;;;;;;20.90;16.02;;;22.50;84.70;;;;;;4897492;29;20024;-84
2022/07/16 05:11:17;;;;;;;22.10;16.88;;;22.60;85.00;;;;;;4897766;29;20541;-84
2022/07/16 05:13:42;;;;;;;24.88;16.55;;;22.60;85.00;;;;;;4896604;29;20063;-84
2022/07/16 05:16:08;;;;;;;22.95;16.30;;;22.60;85.90;;;;;;4897539;29;20108;-83
2022/07/16 05:18:34;;;;;;;22.15;16.30;;;22.60;85.70;;;;;;4896584;29;20044;-84
2022/07/16 05:20:59;;;;;;;20.50;15.38;;;22.60;85.90;;;;;;4897653;29;20092;-84
2022/07/16 05:23:25;;;;;;;22.73;16.70;;;22.60;86.50;;;;;;4897621;29;20048;-84
2022/07/16 05:25:51;;;;;;;27.88;16.77;;;22.60;86.90;;;;;;4898022;29;20029;-84
2022/07/16 05:28:16;;;;;;;27.35;17.40;;;22.60;87.30;;;;;;4897626;29;20059;-84
2022/07/16 05:30:42;;;;;;;22.17;17.17;;;22.70;87.60;;;;;;4896051;29;20161;-84
2022/07/16 05:33:07;;;;;;;21.38;16.63;;;22.60;88.00;;;;;;4897467;29;20067;-83
2022/07/16 05:35:33;;;;;;;22.58;16.83;;;22.60;88.60;;;;;;4897255;29;20479;-83
2022/07/16 05:37:59;;;;;;;23.25;16.33;;;22.50;88.40;;;;;;4897300;29;20093;-83
2022/07/16 05:40:24;;;;;;;28.50;17.25;;;22.70;88.40;;;;;;4895639;29;20505;-83
2022/07/16 05:42:50;;;;;;;25.55;15.95;;;22.70;88.40;;;;;;4896023;29;20540;-84
2022/07/16 05:45:16;;;;;;;23.30;16.50;;;22.70;88.00;;;;;;4900818;29;20035;-84
2022/07/16 05:47:42;;;;;;;22.95;16.80;;;22.70;87.30;;;;;;4900612;29;20024;-84
2022/07/16 05:50:08;;;;;;;21.33;13.82;;;22.70;87.00;;;;;;4901124;29;20496;-81
2022/07/16 05:52:34;;;;;;;17.80;12.68;;;22.80;85.20;;;;;;4901401;29;20021;-84
2022/07/16 05:55:00;;;;;;;19.25;12.38;;;22.70;84.70;;;;;;4901301;29;20032;-83
2022/07/16 05:57:26;;;;;;;33.17;11.00;;;22.70;85.10;;;;;;4900880;29;20028;-83
2022/07/16 05:59:51;;;;;;;14.15;9.77;;;22.60;84.30;;;;;;4901100;29;20032;-83
2022/07/16 06:02:17;;;;;;;12.30;9.00;;;22.70;83.70;;;;;;4901127;29;20069;-83
2022/07/16 06:04:43;;;;;;;14.02;9.40;;;22.80;83.10;;;;;;4900980;29;20107;-84
2022/07/16 06:07:09;;;;;;;12.50;8.40;;;22.80;82.40;;;;;;4900999;29;20063;-83
2022/07/16 06:09:35;;;;;;;13.25;8.43;;;22.90;81.50;;;;;;4900237;29;20021;-84
2022/07/16 06:12:01;;;;;;;11.73;8.52;;;23.00;81.20;;;;;;4900108;29;20024;-83
2022/07/16 06:14:27;;;;;;;13.68;8.75;;;23.10;80.60;;;;;;4898932;29;20037;-83
2022/07/16 06:16:52;;;;;;;11.18;8.38;;;23.30;81.90;;;;;;4900752;29;20043;-78
2022/07/16 06:19:18;;;;;;;15.82;9.35;;;23.30;81.00;;;;;;4900785;29;20040;-79
2022/07/16 06:21:43;;;;;;;12.88;9.05;;;23.40;81.70;;;;;;4901183;29;20040;-79
2022/07/16 06:24:09;;;;;;;18.55;10.65;;;23.40;82.50;;;;;;4900411;29;20504;-79
2022/07/16 06:26:35;;;;;;;14.32;10.27;;;23.60;81.40;;;;;;4899359;29;20032;-79
2022/07/16 06:29:01;;;;;;;14.35;11.13;;;23.60;81.90;;;;;;4899780;29;20029;-76
2022/07/16 06:31:26;;;;;;;18.30;11.88;;;23.60;82.30;;;;;;4899824;29;20048;-77
2022/07/16 06:33:52;;;;;;;21.27;14.85;;;23.70;82.20;;;;;;4900477;29;20024;-77
2022/07/16 06:36:18;;;;;;;20.58;15.70;;;23.80;81.80;;;;;;4900233;29;20041;-77
2022/07/16 06:38:43;;;;;;;24.52;16.88;;;23.90;81.90;;;;;;4899329;29;20080;-77
2022/07/16 06:41:09;;;;;;;20.90;16.50;;;23.90;82.30;;;;;;4900328;29;20438;-77
2022/07/16 06:43:35;;;;;;;24.98;17.17;;;24.00;83.50;;;;;;4899898;29;20389;-76
2022/07/16 06:46:00;;;;;;;22.63;16.63;;;24.00;83.00;;;;;;4900617;29;20035;-77
2022/07/16 06:48:26;;;;;;;19.60;16.05;;;24.00;81.70;;;;;;4900134;29;20035;-76
2022/07/16 06:50:52;;;;;;;24.63;16.92;;;24.00;82.30;;;;;;4897969;29;20033;-76
2022/07/16 06:53:17;;;;;;;21.98;16.20;;;24.00;82.50;;;;;;4899825;29;20088;-76
2022/07/16 06:55:43;;;;;;;26.58;16.48;;;24.10;82.10;;;;;;4899863;29;20028;-76
2022/07/16 06:58:09;;;;;;;20.05;15.02;;;24.10;81.50;;;;;;4899932;29;20032;-76
2022/07/16 07:00:34;;;;;;;24.52;16.50;;;24.10;81.50;;;;;;4899875;29;20028;-76
2022/07/16 07:03:00;;;;;;;17.92;14.13;;;24.20;81.10;;;;;;4899902;29;20033;-77
2022/07/16 07:05:26;;;;;;;22.08;15.27;;;24.20;81.60;;;;;;4898820;29;20068;-76
2022/07/16 07:07:51;;;;;;;20.98;15.18;;;24.30;81.60;;;;;;4899849;29;20044;-76
2022/07/16 07:10:19;;;;;;;25.25;15.73;;;24.40;81.50;;;;;;4899655;29;20108;-78
2022/07/16 07:12:46;;;;;;;21.48;14.98;;;24.40;81.30;;;;;;4898237;29;20084;-76
2022/07/16 07:15:11;;;;;;;23.42;14.60;;;24.60;78.90;;;;;;4898636;29;20035;-74
2022/07/16 07:17:37;;;;;;;21.52;15.00;;;24.70;76.10;;;;;;4898110;29;20032;-73
2022/07/16 07:20:05;;;;;;;18.75;14.90;;;24.70;76.90;;;;;;4899388;29;20055;-73
2022/07/16 07:22:31;;;;;;;18.77;13.52;;;24.80;76.60;;;;;;4899074;29;20025;-75
2022/07/16 07:24:57;;;;;;;18.40;13.93;;;24.90;75.70;;;;;;4899080;29;20032;-77
2022/07/16 07:27:22;;;;;;;26.98;15.32;;;25.00;75.20;;;;;;4899767;29;20028;-77
2022/07/16 07:29:48;;;;;;;20.25;15.48;;;24.90;77.40;;;;;;4899214;29;20039;-75
2022/07/16 07:32:14;;;;;;;18.23;14.38;;;24.90;77.40;;;;;;4899052;29;20028;-75
2022/07/16 07:34:40;;;;;;;21.15;13.55;;;25.00;76.00;;;;;;4899022;29;20167;-74
2022/07/16 07:37:05;;;;;;;19.20;14.30;;;25.00;77.00;;;;;;4898529;29;20110;-76
2022/07/16 07:39:31;;;;;;;17.65;13.50;;;25.10;75.90;;;;;;4897864;29;20051;-74
2022/07/16 07:41:57;;;;;;;24.75;14.85;;;25.20;74.20;;;;;;4899229;29;20040;-74
2022/07/16 07:44:22;;;;;;;16.77;14.10;;;25.30;75.80;;;;;;4899071;29;20029;-75
2022/07/16 07:46:48;;;;;;;19.65;14.80;;;25.40;76.10;;;;;;4899312;29;20021;-73
2022/07/16 07:49:14;;;;;;;22.75;14.77;;;25.40;77.00;;;;;;4898917;29;20028;-78
2022/07/16 07:51:39;;;;;;;19.42;14.27;;;25.40;74.80;;;;;;4899069;29;20028;-74
2022/07/16 07:54:05;;;;;;;17.20;13.32;;;25.50;74.20;;;;;;4898079;29;20453;-74
2022/07/16 07:56:31;;;;;;;18.75;13.30;;;25.70;76.20;;;;;;4898488;29;20540;-75
2022/07/16 10:09:46;;;;;;;12.85;7.40;;;34.10;46.40;;;;;;5429352;23;20383;-83
2022/07/16 10:12:15;;;;;;;11.07;8.68;;;34.10;46.10;;;;;;4915148;29;20047;-79
2022/07/16 10:14:43;;;;;;;11.32;8.77;;;33.90;46.70;;;;;;4916113;29;20035;-80
2022/07/16 10:17:34;;;;;;;13.20;7.55;;;34.10;46.60;;;;;;4916194;29;20035;-82
2022/07/16 10:20:11;;;;;;;10.50;7.72;;;34.20;45.20;;;;;;4914528;29;20460;-83
2022/07/16 10:22:37;;;;;;;11.23;6.95;;;34.10;45.80;;;;;;4915443;29;20028;-80
2022/07/16 10:25:14;;;;;;;12.02;7.88;;;34.30;46.00;;;;;;4915775;29;20032;-80
2022/07/16 10:27:42;;;;;;;9.40;7.70;;;34.30;45.20;;;;;;4900033;29;20084;-82
2022/07/16 10:30:30;;;;;;;10.85;7.43;;;34.20;45.60;;;;;;4917420;29;20072;-82
2022/07/16 10:32:59;;;;;;;8.93;7.18;;;34.40;45.50;;;;;;4919322;29;20081;-82
2022/07/16 10:35:39;;;;;;;9.32;6.95;;;34.40;45.20;;;;;;4919203;29;20035;-82
2022/07/16 10:38:10;;;;;;;11.40;6.73;;;34.70;44.60;;;;;;4919358;29;20064;-77
2022/07/16 10:40:38;;;;;;;11.00;6.47;;;35.00;43.60;;;;;;4919247;29;20039;-78
2022/07/16 10:43:11;;;;;;;13.00;6.50;;;34.90;43.70;;;;;;4919308;29;20038;-76
2022/07/16 10:45:56;;;;;;;10.57;6.88;;;35.10;42.90;;;;;;4918732;29;20024;-77
2022/07/16 10:48:38;;;;;;;10.52;6.32;;;34.90;42.80;;;;;;4918613;29;20035;-77
2022/07/16 10:51:16;;;;;;;8.23;6.60;;;35.20;42.90;;;;;;4918065;29;20028;-80
2022/07/16 10:53:57;;;;;;;9.20;6.43;;;35.40;41.90;;;;;;4918689;29;20500;-81
2022/07/16 10:56:37;;;;;;;10.87;6.17;;;35.00;41.20;;;;;;4905233;29;20043;-81
2022/07/16 10:59:08;;;;;;;12.47;6.77;;;35.30;41.00;;;;;;4900285;29;20099;-77
2022/07/16 11:01:35;;;;;;;11.23;6.90;;;35.40;41.20;;;;;;4900278;29;20029;-77
2022/07/16 11:04:02;;;;;;;8.50;6.10;;;35.50;40.60;;;;;;4899524;29;20032;-77
2022/07/16 11:06:29;;;;;;;9.27;5.65;;;35.60;39.90;;;;;;4900130;29;20072;-77
2022/07/16 11:08:57;;;;;;;8.38;5.38;;;35.30;39.60;;;;;;4895027;29;20053;-77
2022/07/16 11:11:23;;;;;;;14.18;5.95;;;35.40;39.60;;;;;;4899154;29;20032;-74
2022/07/16 11:13:52;;;;;;;9.50;5.20;;;35.80;40.40;;;;;;4899235;29;20503;-78
2022/07/16 11:16:18;;;;;;;6.13;4.75;;;35.60;39.60;;;;;;4899499;29;20032;-76
2022/07/16 11:18:43;;;;;;;6.50;5.20;;;35.50;39.40;;;;;;4897200;29;20025;-78
2022/07/16 11:21:10;;;;;;;8.70;4.28;;;35.50;39.40;;;;;;4899692;29;20512;-78
2022/07/16 11:23:49;;;;;;;4.57;3.25;;;35.70;38.80;;;;;;4899754;29;20033;-78
2022/07/16 11:26:15;;;;;;;7.80;3.00;;;36.00;38.20;;;;;;4899426;29;20031;-80
2022/07/16 11:29:02;;;;;;;4.97;3.22;;;36.10;36.30;;;;;;4899808;29;20060;-77
2022/07/16 11:31:33;;;;;;;5.45;2.67;;;36.30;37.70;;;;;;4899587;29;20025;-83
2022/07/16 11:34:02;;;;;;;6.50;3.17;;;36.30;37.50;;;;;;4899117;29;20128;-81
2022/07/16 11:36:36;;;;;;;6.10;2.30;;;36.30;36.20;;;;;;4899298;29;20081;-80
2022/07/16 11:39:13;;;;;;;5.68;3.00;;;36.20;35.10;;;;;;4899194;29;20160;-81
2022/07/16 11:41:43;;;;;;;6.15;2.85;;;36.40;35.50;;;;;;4897059;29;20400;-79
2022/07/16 11:44:17;;;;;;;4.25;3.03;;;36.40;34.30;;;;;;4899481;29;20028;-79
2022/07/16 11:46:47;;;;;;;4.78;2.70;;;36.40;35.20;;;;;;4898543;29;20175;-80
2022/07/16 11:49:28;;;;;;;7.03;2.80;;;36.50;35.90;;;;;;4899128;29;20037;-78
2022/07/16 11:51:57;;;;;;;5.27;2.40;;;36.20;35.10;;;;;;4899029;29;20033;-77
2022/07/16 11:54:24;;;;;;;4.20;2.38;;;36.00;35.20;;;;;;4899264;29;20304;-80
2022/07/16 11:56:50;;;;;;;3.50;1.85;;;36.20;33.80;;;;;;4898500;29;20028;-77
2022/07/16 11:59:26;;;;;;;7.43;2.10;;;36.60;33.70;;;;;;4898854;29;20033;-80
2022/07/16 12:02:03;;;;;;;4.55;2.08;;;37.10;34.20;;;;;;4898404;29;20032;-79
2022/07/16 12:04:42;;;;;;;11.88;2.20;;;37.00;33.70;;;;;;4898027;29;20067;-78
2022/07/16 12:07:30;;;;;;;2.70;1.95;;;37.10;33.60;;;;;;4897876;29;20020;-78
2022/07/16 12:09:58;;;;;;;9.15;2.00;;;37.30;33.00;;;;;;4889697;29;20048;-77
2022/07/16 12:12:34;;;;;;;5.03;1.67;;;37.40;32.90;;;;;;4898995;29;20028;-78
2022/07/16 12:15:01;;;;;;;6.70;1.92;;;37.30;32.60;;;;;;4897862;29;20025;-78
2022/07/16 12:17:28;;;;;;;2.78;1.83;;;37.10;33.30;;;;;;4898889;29;20024;-77
2022/07/16 12:20:07;;;;;;;5.00;1.80;;;37.30;32.70;;;;;;4898374;29;20032;-78
2022/07/16 12:23:05;;;;;;;2.90;1.38;;;37.20;31.80;;;;;;4898798;29;20024;-77
2022/07/16 12:25:35;;;;;;;2.38;1.75;;;37.10;31.30;;;;;;4877580;29;20056;-78
2022/07/16 12:28:19;;;;;;;8.10;1.73;;;37.20;31.90;;;;;;4877705;29;20045;-78
2022/07/16 12:30:56;;;;;;;3.72;1.60;;;37.10;31.50;;;;;;4862105;29;20033;-78
2022/07/16 12:33:27;;;;;;;3.75;1.80;;;37.10;32.40;;;;;;4877491;29;20413;-78
2022/07/16 12:36:02;;;;;;;2.65;1.50;;;37.20;31.50;;;;;;4877181;29;20041;-78
2022/07/16 12:39:04;;;;;;;4.82;1.90;;;37.40;31.20;;;;;;4877321;29;20037;-79
2022/07/16 12:41:36;;;;;;;;;;;37.60;30.60;;;;;;4877867;29;20041;-80
2022/07/16 12:44:10;;;;;;;2.17;1.65;;;37.60;31.20;;;;;;4876998;29;19915;-80
2022/07/16 12:46:41;;;;;;;3.33;1.60;;;37.50;31.30;;;;;;4877480;29;20033;-80
2022/07/16 12:49:16;;;;;;;3.15;1.40;;;37.50;31.60;;;;;;4877244;29;20041;-78
2022/07/16 12:51:56;;;;;;;4.03;1.80;;;37.60;31.30;;;;;;4877375;29;20597;-80
2022/07/16 12:54:22;;;;;;;3.95;1.83;;;37.80;30.10;;;;;;4877195;29;20513;-77
2022/07/16 12:59:33;;;;;;;2.00;1.33;;;37.50;31.20;;;;;;4876434;29;20044;-82
2022/07/16 13:02:05;;;;;;;4.07;1.52;;;37.80;30.70;;;;;;4895036;29;20508;-82
2022/07/16 13:04:31;;;;;;;6.22;1.48;;;37.90;30.50;;;;;;4897874;29;20117;-82
2022/07/16 13:06:57;;;;;;;1.98;1.20;;;37.80;30.00;;;;;;4897773;29;20466;-82
2022/07/16 13:09:22;;;;;;;1.85;1.10;;;37.60;29.40;;;;;;4897107;29;20051;-82
2022/07/16 13:11:48;;;;;;;1.92;1.20;;;37.40;27.40;;;;;;4897380;29;20020;-82
2022/07/16 13:14:14;;;;;;;1.67;1.17;;;37.50;27.70;;;;;;4897291;29;20031;-78
2022/07/16 13:16:40;;;;;;;2.90;1.45;;;37.90;28.80;;;;;;4897931;29;20029;-79
2022/07/16 13:19:06;;;;;;;4.53;1.20;;;37.70;28.50;;;;;;4912229;29;20055;-88
2022/07/16 13:21:33;;;;;;;2.60;1.60;;;38.00;28.60;;;;;;4897675;29;20034;-83
2022/07/16 13:23:59;;;;;;;3.83;1.40;;;37.90;30.00;;;;;;4897452;29;20028;-82
2022/07/16 13:26:30;;;;;;;1.95;1.20;;;37.50;30.30;;;;;;4897523;29;20056;-84
2022/07/16 13:28:56;;;;;;;4.03;1.38;;;37.00;30.10;;;;;;4896964;29;20043;-84
2022/07/16 13:31:23;;;;;;;2.60;1.50;;;37.20;30.30;;;;;;4897500;29;20088;-83
2022/07/16 13:33:49;;;;;;;3.47;1.70;;;37.70;30.60;;;;;;4897633;29;20029;-83
2022/07/16 13:36:15;;;;;;;2.47;1.40;;;37.40;30.40;;;;;;4896682;29;20044;-77
2022/07/16 13:38:42;;;;;;;1.65;1.10;;;37.50;30.60;;;;;;4897828;29;20036;-84
2022/07/16 13:41:10;;;;;;;3.30;1.10;;;37.60;29.90;;;;;;4897471;29;20036;-84
2022/07/16 13:43:37;;;;;;;7.78;1.50;;;37.40;30.00;;;;;;4897055;29;20151;-84
2022/07/16 13:46:05;;;;;;;5.28;1.30;;;37.80;30.00;;;;;;4897525;29;20023;-84
2022/07/16 13:48:30;;;;;;;8.60;1.40;;;37.60;29.10;;;;;;4896353;29;20029;-82
2022/07/16 13:50:56;;;;;;;13.60;1.50;;;37.50;29.70;;;;;;4897428;29;20096;-82
2022/07/16 13:53:22;;;;;;;8.23;1.52;;;37.50;29.30;;;;;;4897288;29;20040;-82
2022/07/16 13:55:47;;;;;;;113.28;4.93;;;37.80;29.40;;;;;;4897559;29;20063;-83
2022/07/16 13:58:13;;;;;;;10.23;1.60;;;37.70;29.50;;;;;;4896222;29;20044;-82
2022/07/16 14:00:42;;;;;;;2.83;1.40;;;37.50;29.50;;;;;;4897311;29;20098;-85
2022/07/16 14:03:08;;;;;;;2.60;1.10;;;37.50;29.90;;;;;;4896661;29;20569;-78
2022/07/16 14:05:33;;;;;;;3.63;1.20;;;37.20;29.40;;;;;;4898434;29;20020;-83
2022/07/16 14:07:59;;;;;;;3.75;1.25;;;37.30;28.80;;;;;;4900861;29;20055;-82
2022/07/16 14:10:25;;;;;;;2.13;1.15;;;37.00;29.30;;;;;;4899807;29;20045;-84
2022/07/16 14:12:51;;;;;;;2.05;1.08;;;36.70;29.00;;;;;;4900708;29;20108;-84
2022/07/16 14:15:17;;;;;;;2.10;1.13;;;36.90;29.00;;;;;;4900627;29;20024;-83
2022/07/16 14:17:43;;;;;;;4.30;1.00;;;37.20;29.60;;;;;;4899576;29;20036;-84
2022/07/16 14:20:11;;;;;;;5.07;1.20;;;37.10;29.00;;;;;;4900700;29;20381;-83
2022/07/16 14:22:39;;;;;;;1.35;0.95;;;37.10;28.90;;;;;;4899725;29;20103;-81
2022/07/16 14:25:06;;;;;;;1.85;0.93;;;37.20;28.80;;;;;;4900164;29;20037;-81
2022/07/16 14:27:31;;;;;;;2.28;1.05;;;37.30;28.80;;;;;;4898787;29;20393;-81
2022/07/16 14:29:57;;;;;;;3.28;0.80;;;36.90;28.60;;;;;;4895369;29;20025;-82
2022/07/16 14:32:23;;;;;;;1.55;0.88;;;37.00;28.40;;;;;;4898837;29;20033;-82
2022/07/16 14:34:48;;;;;;;1.52;1.00;;;37.30;28.40;;;;;;4897300;29;20040;-82
2022/07/16 14:37:14;;;;;;;5.00;1.15;;;37.00;27.60;;;;;;4899734;29;20027;-82
2022/07/16 14:39:40;;;;;;;0.98;0.63;;;37.20;27.60;;;;;;4900040;29;20040;-82
2022/07/16 14:42:06;;;;;;;1.55;0.80;;;37.50;27.40;;;;;;4899466;29;20033;-82
2022/07/16 14:44:34;;;;;;;2.67;1.00;;;37.60;28.00;;;;;;4899087;29;20032;-81
2022/07/16 14:47:00;;;;;;;0.95;0.80;;;37.50;27.50;;;;;;4900070;29;20116;-81
2022/07/16 14:49:26;;;;;;;1.27;0.90;;;37.50;27.40;;;;;;4899584;29;20024;-82
2022/07/16 14:51:51;;;;;;;3.17;0.70;;;37.30;27.00;;;;;;4899424;29;20033;-81
2022/07/16 14:54:17;;;;;;;5.07;0.70;;;37.20;26.80;;;;;;4899678;29;20025;-84
2022/07/16 14:56:43;;;;;;;0.90;0.77;;;37.20;26.60;;;;;;4899128;29;20024;-77
2022/07/16 14:59:08;;;;;;;1.90;1.20;;;37.10;27.10;;;;;;4898481;29;20041;-77
2022/07/16 15:01:34;;;;;;;2.75;0.80;;;37.30;27.30;;;;;;4898244;29;20025;-78
2022/07/16 15:04:00;;;;;;;3.17;0.80;;;37.40;27.00;;;;;;4899390;29;20401;-78
2022/07/16 15:06:26;;;;;;;1.77;0.93;;;37.40;26.80;;;;;;4899230;29;20021;-77